createdAt,value
2018-03-21T00:00:28.324Z,0.79
2018-03-21T00:01:28.342Z,0.88
2018-03-21T00:02:28.112Z,0.71
2018-03-21T00:03:27.960Z,0.76
2018-03-21T00:04:27.741Z,0.8
2018-03-21T00:05:28.130Z,0.72
2018-03-21T00:06:27.771Z,0.78
2018-03-21T00:07:27.963Z,0.76
2018-03-21T00:08:28.229Z,0.68
2018-03-21T00:09:27.895Z,0.7
2018-03-21T00:10:28.197Z,0.68
2018-03-21T00:11:27.888Z,0.68
2018-03-21T00:12:28.086Z,0.68
2018-03-21T00:13:28.067Z,0.7
2018-03-21T00:14:27.510Z,0.71
2018-03-21T00:15:27.480Z,0.68
2018-03-21T00:16:27.851Z,0.68
2018-03-21T00:17:27.702Z,0.68
2018-03-21T00:18:27.944Z,0.7
2018-03-21T00:19:27.660Z,0.68
2018-03-21T00:20:27.986Z,0.58
2018-03-21T00:21:27.934Z,0.61
2018-03-21T00:22:27.854Z,0.6
2018-03-21T00:23:27.559Z,0.65
2018-03-21T00:24:27.896Z,0.68
2018-03-21T00:25:27.927Z,0.67
2018-03-21T00:26:27.224Z,0.6
2018-03-21T00:27:27.506Z,0.6
2018-03-21T00:28:27.440Z,0.53
2018-03-21T00:29:27.728Z,0.45
2018-03-21T00:30:27.232Z,0.45
2018-03-21T00:31:27.109Z,0.36
2018-03-21T00:32:27.520Z,0.34
2018-03-21T00:33:27.334Z,0.34
2018-03-21T00:34:27.302Z,0.27
2018-03-21T00:35:27.015Z,0.31
2018-03-21T00:36:26.986Z,0.16
2018-03-21T00:37:27.231Z,0.21
2018-03-21T00:38:27.467Z,0.21
2018-03-21T00:39:27.295Z,0.2
2018-03-21T00:40:27.167Z,0.1
2018-03-21T00:41:27.134Z,0.16
2018-03-21T00:42:27.383Z,0.21
2018-03-21T00:43:27.360Z,0.1
2018-03-21T00:44:27.519Z,0.09
2018-03-21T00:45:27.100Z,0.15
2018-03-21T00:46:27.024Z,0.07
2018-03-21T00:47:27.032Z,0.05
2018-03-21T00:48:26.968Z,0.02
2018-03-21T00:49:27.217Z,0.05
2018-03-21T00:50:26.648Z,-0.01
2018-03-21T00:51:27.201Z,0.05
2018-03-21T00:52:26.600Z,-0.06
2018-03-21T00:53:26.579Z,-0.05
2018-03-21T00:54:26.820Z,-0.05
2018-03-21T00:55:26.918Z,-0.11
2018-03-21T00:56:26.510Z,-0.11
2018-03-21T00:57:27.072Z,-0.18
2018-03-21T00:58:26.990Z,-0.23
2018-03-21T00:59:26.701Z,-0.16
2018-03-21T01:00:26.706Z,-0.26
2018-03-21T01:01:26.798Z,-0.31
2018-03-21T01:02:26.366Z,-0.26
2018-03-21T01:03:26.879Z,-0.22
2018-03-21T01:04:26.631Z,-0.24
2018-03-21T01:05:26.560Z,-0.22
2018-03-21T01:06:26.908Z,-0.29
2018-03-21T01:07:26.563Z,-0.26
2018-03-21T01:08:26.772Z,-0.34
2018-03-21T01:09:26.459Z,-0.33
2018-03-21T01:10:26.194Z,-0.42
2018-03-21T01:11:26.724Z,-0.34
2018-03-21T01:12:26.805Z,-0.34
2018-03-21T01:13:26.414Z,-0.37
2018-03-21T01:14:26.097Z,-0.44
2018-03-21T01:15:26.352Z,-0.41
2018-03-21T01:16:26.304Z,-0.44
2018-03-21T01:17:26.291Z,-0.45
2018-03-21T01:18:26.530Z,-0.47
2018-03-21T01:19:25.949Z,-0.47
2018-03-21T01:20:26.496Z,-0.42
2018-03-21T01:21:26.430Z,-0.52
2018-03-21T01:22:26.413Z,-0.54
2018-03-21T01:23:26.397Z,-0.5
2018-03-21T01:24:26.380Z,-0.63
2018-03-21T01:25:26.075Z,-0.63
2018-03-21T01:26:26.050Z,-0.62
2018-03-21T01:27:26.090Z,-0.68
2018-03-21T01:28:26.315Z,-0.62
2018-03-21T01:29:25.980Z,-0.69
2018-03-21T01:30:26.359Z,-0.62
2018-03-21T01:31:26.193Z,-0.72
2018-03-21T01:32:25.933Z,-0.72
2018-03-21T01:33:25.886Z,-0.78
2018-03-21T01:34:25.866Z,-0.83
2018-03-21T01:35:25.829Z,-0.84
2018-03-21T01:36:26.077Z,-0.77
2018-03-21T01:37:26.061Z,-0.81
2018-03-21T01:38:25.543Z,-0.75
2018-03-21T01:39:26.103Z,-0.84
2018-03-21T01:40:26.378Z,-0.81
2018-03-21T01:41:25.682Z,-0.8
2018-03-21T01:42:25.433Z,-0.81
2018-03-21T01:43:26.016Z,-0.81
2018-03-21T01:44:25.886Z,-0.77
2018-03-21T01:45:25.848Z,-0.81
2018-03-21T01:46:25.605Z,-0.89
2018-03-21T01:47:25.538Z,-0.87
2018-03-21T01:48:25.521Z,-0.86
2018-03-21T01:49:25.504Z,-0.84
2018-03-21T01:50:25.308Z,-0.89
2018-03-21T01:51:25.542Z,-1
2018-03-21T01:52:25.160Z,-0.87
2018-03-21T01:53:25.394Z,-0.91
2018-03-21T01:54:25.300Z,-0.92
2018-03-21T01:55:25.338Z,-0.91
2018-03-21T01:56:25.313Z,-1.05
2018-03-21T01:57:25.290Z,-0.91
2018-03-21T01:58:25.294Z,-1.03
2018-03-21T01:59:25.536Z,-0.99
2018-03-21T02:00:25.482Z,-0.99
2018-03-21T02:01:24.939Z,-0.97
2018-03-21T02:02:25.437Z,-1
2018-03-21T02:03:25.197Z,-0.99
2018-03-21T02:04:25.155Z,-1.12
2018-03-21T02:05:25.394Z,-0.99
2018-03-21T02:06:25.339Z,-0.99
2018-03-21T02:07:25.084Z,-1.06
2018-03-21T02:08:24.758Z,-1.03
2018-03-21T02:09:24.994Z,-1.12
2018-03-21T02:10:24.735Z,-1.13
2018-03-21T02:11:24.957Z,-1.09
2018-03-21T02:12:24.922Z,-1.1
2018-03-21T02:13:25.053Z,-1.18
2018-03-21T02:14:24.618Z,-1.13
2018-03-21T02:15:24.848Z,-1.2
2018-03-21T02:16:24.824Z,-1.24
2018-03-21T02:17:25.069Z,-1.24
2018-03-21T02:18:25.038Z,-1.2
2018-03-21T02:19:24.853Z,-1.21
2018-03-21T02:20:24.480Z,-1.25
2018-03-21T02:21:24.697Z,-1.2
2018-03-21T02:22:24.683Z,-1.2
2018-03-21T02:23:24.931Z,-1.25
2018-03-21T02:24:24.927Z,-1.24
2018-03-21T02:25:24.896Z,-1.2
2018-03-21T02:26:24.315Z,-1.25
2018-03-21T02:27:24.559Z,-1.27
2018-03-21T02:28:24.787Z,-1.27
2018-03-21T02:29:24.764Z,-1.35
2018-03-21T02:30:24.515Z,-1.25
2018-03-21T02:31:24.728Z,-1.28
2018-03-21T02:32:24.427Z,-1.38
2018-03-21T02:33:24.400Z,-1.39
2018-03-21T02:34:24.655Z,-1.33
2018-03-21T02:35:24.432Z,-1.38
2018-03-21T02:36:24.331Z,-1.38
2018-03-21T02:37:24.569Z,-1.43
2018-03-21T02:38:24.280Z,-1.33
2018-03-21T02:39:24.260Z,-1.35
2018-03-21T02:40:23.965Z,-1.39
2018-03-21T02:41:24.207Z,-1.35
2018-03-21T02:42:24.461Z,-1.39
2018-03-21T02:43:24.156Z,-1.3
2018-03-21T02:44:24.139Z,-1.27
2018-03-21T02:45:24.385Z,-1.31
2018-03-21T02:46:24.073Z,-1.36
2018-03-21T02:47:24.357Z,-1.42
2018-03-21T02:48:24.037Z,-1.35
2018-03-21T02:49:24.134Z,-1.41
2018-03-21T02:50:24.036Z,-1.28
2018-03-21T02:51:23.692Z,-1.39
2018-03-21T02:52:24.197Z,-1.39
2018-03-21T02:53:24.285Z,-1.49
2018-03-21T02:54:23.893Z,-1.49
2018-03-21T02:55:24.123Z,-1.46
2018-03-21T02:56:23.833Z,-1.54
2018-03-21T02:57:23.807Z,-1.59
2018-03-21T02:58:23.516Z,-1.48
2018-03-21T02:59:24.019Z,-1.48
2018-03-21T03:00:23.467Z,-1.49
2018-03-21T03:01:24.102Z,-1.46
2018-03-21T03:02:23.413Z,-1.57
2018-03-21T03:03:24.004Z,-1.6
2018-03-21T03:04:23.651Z,-1.63
2018-03-21T03:05:23.879Z,-1.64
2018-03-21T03:06:23.612Z,-1.64
2018-03-21T03:07:23.561Z,-1.67
2018-03-21T03:08:23.527Z,-1.59
2018-03-21T03:09:23.506Z,-1.63
2018-03-21T03:10:23.477Z,-1.63
2018-03-21T03:11:23.459Z,-1.67
2018-03-21T03:12:23.694Z,-1.53
2018-03-21T03:13:23.495Z,-1.48
2018-03-21T03:14:23.415Z,-1.51
2018-03-21T03:15:23.083Z,-1.39
2018-03-21T03:16:23.639Z,-1.42
2018-03-21T03:17:23.319Z,-1.31
2018-03-21T03:18:23.542Z,-1.39
2018-03-21T03:19:23.258Z,-1.42
2018-03-21T03:20:23.228Z,-1.31
2018-03-21T03:21:23.327Z,-1.38
2018-03-21T03:22:23.445Z,-1.36
2018-03-21T03:23:23.239Z,-1.41
2018-03-21T03:24:22.884Z,-1.45
2018-03-21T03:25:23.298Z,-1.42
2018-03-21T03:26:23.073Z,-1.39
2018-03-21T03:27:23.048Z,-1.35
2018-03-21T03:28:23.287Z,-1.39
2018-03-21T03:29:22.744Z,-1.36
2018-03-21T03:30:22.705Z,-1.36
2018-03-21T03:31:22.952Z,-1.45
2018-03-21T03:32:22.928Z,-1.43
2018-03-21T03:33:22.635Z,-1.45
2018-03-21T03:34:22.871Z,-1.42
2018-03-21T03:35:22.846Z,-1.45
2018-03-21T03:36:23.089Z,-1.42
2018-03-21T03:37:22.582Z,-1.48
2018-03-21T03:38:23.038Z,-1.49
2018-03-21T03:39:23.018Z,-1.54
2018-03-21T03:40:22.727Z,-1.54
2018-03-21T03:41:22.753Z,-1.43
2018-03-21T03:42:22.963Z,-1.43
2018-03-21T03:43:22.656Z,-1.41
2018-03-21T03:44:22.363Z,-1.39
2018-03-21T03:45:22.349Z,-1.45
2018-03-21T03:46:22.574Z,-1.42
2018-03-21T03:47:22.287Z,-1.35
2018-03-21T03:48:22.605Z,-1.39
2018-03-21T03:49:22.565Z,-1.42
2018-03-21T03:50:22.490Z,-1.43
2018-03-21T03:51:22.452Z,-1.3
2018-03-21T03:52:22.425Z,-1.33
2018-03-21T03:53:22.137Z,-1.28
2018-03-21T03:54:22.860Z,-1.42
2018-03-21T03:55:22.346Z,-1.41
2018-03-21T03:56:22.220Z,-1.33
2018-03-21T03:57:22.302Z,-1.43
2018-03-21T03:58:22.538Z,-1.43
2018-03-21T03:59:22.549Z,-1.43
2018-03-21T04:00:22.223Z,-1.46
2018-03-21T04:01:22.269Z,-1.46
2018-03-21T04:02:22.502Z,-1.48
2018-03-21T04:03:21.879Z,-1.46
2018-03-21T04:04:22.150Z,-1.38
2018-03-21T04:05:22.381Z,-1.46
2018-03-21T04:06:21.804Z,-1.43
2018-03-21T04:07:22.050Z,-1.54
2018-03-21T04:08:22.034Z,-1.51
2018-03-21T04:09:21.729Z,-1.49
2018-03-21T04:10:21.970Z,-1.66
2018-03-21T04:11:22.380Z,-1.64
2018-03-21T04:12:22.178Z,-1.66
2018-03-21T04:13:22.176Z,-1.69
2018-03-21T04:14:21.868Z,-1.62
2018-03-21T04:15:21.700Z,-1.7
2018-03-21T04:16:21.910Z,-1.7
2018-03-21T04:17:21.655Z,-1.8
2018-03-21T04:18:21.779Z,-1.63
2018-03-21T04:19:21.484Z,-1.72
2018-03-21T04:20:22.038Z,-1.69
2018-03-21T04:21:21.987Z,-1.75
2018-03-21T04:22:21.941Z,-1.69
2018-03-21T04:23:21.967Z,-1.74
2018-03-21T04:24:21.350Z,-1.77
2018-03-21T04:25:21.849Z,-1.67
2018-03-21T04:26:21.833Z,-1.72
2018-03-21T04:27:21.272Z,-1.77
2018-03-21T04:28:21.522Z,-1.75
2018-03-21T04:29:21.486Z,-1.64
2018-03-21T04:30:21.778Z,-1.74
2018-03-21T04:31:21.441Z,-1.81
2018-03-21T04:32:21.423Z,-1.78
2018-03-21T04:33:21.125Z,-1.72
2018-03-21T04:34:21.632Z,-1.77
2018-03-21T04:35:21.077Z,-1.87
2018-03-21T04:36:21.306Z,-1.82
2018-03-21T04:37:21.290Z,-1.85
2018-03-21T04:38:21.275Z,-1.88
2018-03-21T04:39:21.520Z,-1.88
2018-03-21T04:40:20.947Z,-1.93
2018-03-21T04:41:21.201Z,-1.93
2018-03-21T04:42:21.162Z,-1.9
2018-03-21T04:43:21.312Z,-1.87
2018-03-21T04:44:21.144Z,-1.82
2018-03-21T04:45:21.348Z,-1.85
2018-03-21T04:46:21.334Z,-1.84
2018-03-21T04:47:21.035Z,-1.9
2018-03-21T04:48:21.021Z,-1.88
2018-03-21T04:49:21.262Z,-1.9
2018-03-21T04:50:20.732Z,-1.84
2018-03-21T04:51:20.938Z,-1.8
2018-03-21T04:52:20.720Z,-1.85
2018-03-21T04:53:20.907Z,-1.87
2018-03-21T04:54:20.599Z,-1.85
2018-03-21T04:55:20.831Z,-1.82
2018-03-21T04:56:20.809Z,-1.82
2018-03-21T04:57:20.778Z,-1.77
2018-03-21T04:58:20.751Z,-1.81
2018-03-21T04:59:20.736Z,-1.77
2018-03-21T05:00:20.701Z,-1.77
2018-03-21T05:01:20.673Z,-1.67
2018-03-21T05:02:20.657Z,-1.77
2018-03-21T05:03:20.898Z,-1.75
2018-03-21T05:04:20.605Z,-1.74
2018-03-21T05:05:20.841Z,-1.75
2018-03-21T05:06:20.292Z,-1.72
2018-03-21T05:07:20.259Z,-1.77
2018-03-21T05:08:20.657Z,-1.74
2018-03-21T05:09:20.477Z,-1.72
2018-03-21T05:10:20.185Z,-1.67
2018-03-21T05:11:20.157Z,-1.7
2018-03-21T05:12:20.132Z,-1.62
2018-03-21T05:13:20.641Z,-1.66
2018-03-21T05:14:20.080Z,-1.7
2018-03-21T05:15:20.054Z,-1.66
2018-03-21T05:16:20.717Z,-1.7
2018-03-21T05:17:20.502Z,-1.74
2018-03-21T05:18:20.377Z,-1.67
2018-03-21T05:19:20.485Z,-1.66
2018-03-21T05:20:20.458Z,-1.69
2018-03-21T05:21:20.251Z,-1.66
2018-03-21T05:22:20.406Z,-1.67
2018-03-21T05:23:20.452Z,-1.69
2018-03-21T05:24:20.607Z,-1.67
2018-03-21T05:25:20.331Z,-1.66
2018-03-21T05:26:20.077Z,-1.67
2018-03-21T05:27:20.016Z,-1.67
2018-03-21T05:28:19.993Z,-1.7
2018-03-21T05:29:19.705Z,-1.72
2018-03-21T05:30:20.224Z,-1.67
2018-03-21T05:31:19.925Z,-1.72
2018-03-21T05:32:19.973Z,-1.66
2018-03-21T05:33:19.860Z,-1.56
2018-03-21T05:34:19.838Z,-1.57
2018-03-21T05:35:19.808Z,-1.56
2018-03-21T05:36:20.066Z,-1.63
2018-03-21T05:37:19.491Z,-1.49
2018-03-21T05:38:19.739Z,-1.49
2018-03-21T05:39:19.755Z,-1.53
2018-03-21T05:40:19.955Z,-1.54
2018-03-21T05:41:19.421Z,-1.43
2018-03-21T05:42:19.365Z,-1.46
2018-03-21T05:43:19.607Z,-1.45
2018-03-21T05:44:19.587Z,-1.46
2018-03-21T05:45:19.563Z,-1.42
2018-03-21T05:46:19.802Z,-1.39
2018-03-21T05:47:19.249Z,-1.41
2018-03-21T05:48:19.754Z,-1.38
2018-03-21T05:49:19.454Z,-1.38
2018-03-21T05:50:19.166Z,-1.33
2018-03-21T05:51:19.407Z,-1.39
2018-03-21T05:52:19.638Z,-1.31
2018-03-21T05:53:19.619Z,-1.27
2018-03-21T05:54:19.587Z,-1.21
2018-03-21T05:55:19.246Z,-1.2
2018-03-21T05:56:19.316Z,-1.18
2018-03-21T05:57:19.533Z,-1.24
2018-03-21T05:58:19.513Z,-1.27
2018-03-21T05:59:19.473Z,-1.21
2018-03-21T06:00:19.441Z,-1.18
2018-03-21T06:01:19.428Z,-1.24
2018-03-21T06:02:18.865Z,-1.18
2018-03-21T06:03:19.108Z,-1.18
2018-03-21T06:04:19.127Z,-1.23
2018-03-21T06:05:19.058Z,-1.21
2018-03-21T06:06:19.025Z,-1.2
2018-03-21T06:07:18.999Z,-1.21
2018-03-21T06:08:18.973Z,-1.23
2018-03-21T06:09:19.210Z,-1.21
2018-03-21T06:10:19.215Z,-1.2
2018-03-21T06:11:19.174Z,-1.24
2018-03-21T06:12:18.876Z,-1.24
2018-03-21T06:13:18.579Z,-1.23
2018-03-21T06:14:18.827Z,-1.28
2018-03-21T06:15:18.796Z,-1.12
2018-03-21T06:16:19.033Z,-1.13
2018-03-21T06:17:18.750Z,-1.09
2018-03-21T06:18:18.716Z,-1.09
2018-03-21T06:19:18.701Z,-1.17
2018-03-21T06:20:18.675Z,-1.1
2018-03-21T06:21:18.383Z,-1.09
2018-03-21T06:22:18.631Z,-1.1
2018-03-21T06:23:18.593Z,-1.07
2018-03-21T06:24:18.893Z,-1.12
2018-03-21T06:25:18.813Z,-1.07
2018-03-21T06:26:18.788Z,-1.03
2018-03-21T06:27:18.773Z,-1.02
2018-03-21T06:28:18.474Z,-1.06
2018-03-21T06:29:18.455Z,-0.97
2018-03-21T06:30:18.161Z,-1.02
2018-03-21T06:31:18.668Z,-1.06
2018-03-21T06:32:18.107Z,-1.07
2018-03-21T06:33:18.344Z,-0.97
2018-03-21T06:34:18.591Z,-1.06
2018-03-21T06:35:18.034Z,-0.97
2018-03-21T06:36:18.534Z,-1.05
2018-03-21T06:37:18.249Z,-0.95
2018-03-21T06:38:18.218Z,-1
2018-03-21T06:39:18.193Z,-1.1
2018-03-21T06:40:18.174Z,-1.09
2018-03-21T06:41:18.421Z,-1.06
2018-03-21T06:42:18.383Z,-0.92
2018-03-21T06:43:17.827Z,-1.03
2018-03-21T06:44:18.069Z,-0.87
2018-03-21T06:45:18.310Z,-0.92
2018-03-21T06:46:18.022Z,-0.87
2018-03-21T06:47:18.302Z,-0.89
2018-03-21T06:48:18.237Z,-0.89
2018-03-21T06:49:17.962Z,-0.87
2018-03-21T06:50:17.920Z,-0.91
2018-03-21T06:51:17.898Z,-0.86
2018-03-21T06:52:17.872Z,-0.83
2018-03-21T06:53:17.579Z,-0.86
2018-03-21T06:54:17.826Z,-0.89
2018-03-21T06:55:17.531Z,-0.8
2018-03-21T06:56:17.773Z,-0.81
2018-03-21T06:57:17.746Z,-0.65
2018-03-21T06:58:17.721Z,-0.63
2018-03-21T06:59:17.696Z,-0.57
2018-03-21T07:00:17.937Z,-0.54
2018-03-21T07:01:17.645Z,-0.48
2018-03-21T07:02:17.619Z,-0.45
2018-03-21T07:03:17.614Z,-0.39
2018-03-21T07:04:17.574Z,-0.44
2018-03-21T07:05:17.812Z,-0.37
2018-03-21T07:06:17.788Z,-0.37
2018-03-21T07:07:17.779Z,-0.39
2018-03-21T07:08:17.484Z,-0.39
2018-03-21T07:09:17.453Z,-0.41
2018-03-21T07:10:17.425Z,-0.31
2018-03-21T07:11:17.663Z,-0.3
2018-03-21T07:12:17.639Z,-0.36
2018-03-21T07:13:17.620Z,-0.24
2018-03-21T07:14:17.329Z,-0.26
2018-03-21T07:15:17.044Z,-0.24
2018-03-21T07:16:17.557Z,-0.3
2018-03-21T07:17:17.255Z,-0.19
2018-03-21T07:18:17.499Z,-0.09
2018-03-21T07:19:17.475Z,-0.13
2018-03-21T07:20:17.198Z,-0.16
2018-03-21T07:21:17.429Z,-0.12
2018-03-21T07:22:17.144Z,-0.16
2018-03-21T07:23:17.446Z,-0.24
2018-03-21T07:24:16.832Z,-0.23
2018-03-21T07:25:16.799Z,-0.22
2018-03-21T07:26:17.035Z,-0.22
2018-03-21T07:27:17.281Z,-0.15
2018-03-21T07:28:17.006Z,-0.13
2018-03-21T07:29:16.981Z,-0.13
2018-03-21T07:30:17.210Z,-0.04
2018-03-21T07:31:17.193Z,-0.08
2018-03-21T07:32:17.163Z,0.03
2018-03-21T07:33:16.877Z,0.06
2018-03-21T07:34:17.119Z,-0.04
2018-03-21T07:35:16.827Z,0
2018-03-21T07:36:16.812Z,0.02
2018-03-21T07:37:17.094Z,0.18
2018-03-21T07:38:17.090Z,0.16
2018-03-21T07:39:17.014Z,0.28
2018-03-21T07:40:16.996Z,0.3
2018-03-21T07:41:16.684Z,0.3
2018-03-21T07:42:16.666Z,0.39
2018-03-21T07:43:16.915Z,0.39
2018-03-21T07:44:16.636Z,0.45
2018-03-21T07:45:16.866Z,0.43
2018-03-21T07:46:16.836Z,0.48
2018-03-21T07:47:16.568Z,0.48
2018-03-21T07:48:16.811Z,0.46
2018-03-21T07:49:16.507Z,0.51
2018-03-21T07:50:16.745Z,0.58
2018-03-21T07:51:16.461Z,0.61
2018-03-21T07:52:16.443Z,0.62
2018-03-21T07:53:16.415Z,0.7
2018-03-21T07:54:16.121Z,0.71
2018-03-21T07:55:16.304Z,0.79
2018-03-21T07:56:16.335Z,0.61
2018-03-21T07:57:16.064Z,0.64
2018-03-21T07:58:16.574Z,0.67
2018-03-21T07:59:16.269Z,0.75
2018-03-21T08:00:16.245Z,0.82
2018-03-21T08:01:16.690Z,0.82
2018-03-21T08:02:16.232Z,0.72
2018-03-21T08:03:15.913Z,0.88
2018-03-21T08:04:16.426Z,0.72
2018-03-21T08:05:16.410Z,0.76
2018-03-21T08:06:15.849Z,0.71
2018-03-21T08:07:16.084Z,0.76
2018-03-21T08:08:16.416Z,0.78
2018-03-21T08:09:16.046Z,0.89
2018-03-21T08:10:15.751Z,0.85
2018-03-21T08:11:15.995Z,0.86
2018-03-21T08:12:16.240Z,0.92
2018-03-21T08:13:15.952Z,1.1
2018-03-21T08:14:16.194Z,0.98
2018-03-21T08:15:15.908Z,1.01
2018-03-21T08:16:15.880Z,0.96
2018-03-21T08:17:15.861Z,0.98
2018-03-21T08:18:15.851Z,1
2018-03-21T08:19:15.550Z,1.06
2018-03-21T08:20:15.797Z,0.98
2018-03-21T08:21:15.771Z,1.03
2018-03-21T08:22:15.749Z,1.07
2018-03-21T08:23:15.457Z,1.12
2018-03-21T08:24:15.705Z,1.16
2018-03-21T08:25:15.989Z,1.14
2018-03-21T08:26:15.662Z,1.18
2018-03-21T08:27:15.369Z,1.22
2018-03-21T08:28:15.607Z,1.21
2018-03-21T08:29:15.890Z,1.26
2018-03-21T08:30:15.831Z,1.22
2018-03-21T08:31:15.815Z,1.29
2018-03-21T08:32:15.256Z,1.33
2018-03-21T08:33:15.809Z,1.36
2018-03-21T08:34:15.476Z,1.36
2018-03-21T08:35:15.740Z,1.4
2018-03-21T08:36:15.166Z,1.33
2018-03-21T08:37:15.680Z,1.28
2018-03-21T08:38:15.383Z,1.26
2018-03-21T08:39:15.101Z,1.34
2018-03-21T08:40:15.344Z,1.37
2018-03-21T08:41:15.325Z,1.28
2018-03-21T08:42:15.358Z,1.37
2018-03-21T08:43:15.041Z,1.4
2018-03-21T08:44:15.262Z,1.44
2018-03-21T08:45:15.506Z,1.5
2018-03-21T08:46:15.510Z,1.43
2018-03-21T08:47:15.469Z,1.46
2018-03-21T08:48:15.258Z,1.51
2018-03-21T08:49:15.144Z,1.43
2018-03-21T08:50:15.382Z,1.44
2018-03-21T08:51:15.364Z,1.58
2018-03-21T08:52:15.072Z,1.44
2018-03-21T08:53:15.335Z,1.55
2018-03-21T08:54:15.028Z,1.57
2018-03-21T08:55:15.393Z,1.61
2018-03-21T08:56:15.256Z,1.6
2018-03-21T08:57:15.255Z,1.58
2018-03-21T08:58:14.947Z,1.6
2018-03-21T08:59:15.184Z,1.68
2018-03-21T09:00:15.175Z,1.71
2018-03-21T09:01:14.881Z,1.71
2018-03-21T09:02:15.123Z,1.73
2018-03-21T09:03:14.834Z,1.64
2018-03-21T09:04:14.811Z,1.65
2018-03-21T09:05:15.053Z,1.68
2018-03-21T09:06:14.771Z,1.62
2018-03-21T09:07:14.749Z,1.69
2018-03-21T09:08:14.993Z,1.78
2018-03-21T09:09:14.434Z,1.9
2018-03-21T09:10:14.936Z,1.87
2018-03-21T09:11:14.936Z,1.87
2018-03-21T09:12:14.635Z,1.83
2018-03-21T09:13:14.626Z,1.82
2018-03-21T09:14:14.593Z,1.89
2018-03-21T09:15:14.567Z,1.89
2018-03-21T09:16:14.289Z,1.82
2018-03-21T09:17:14.528Z,1.79
2018-03-21T09:18:14.850Z,1.79
2018-03-21T09:19:14.487Z,1.93
2018-03-21T09:20:14.729Z,1.8
2018-03-21T09:21:14.437Z,1.87
2018-03-21T09:22:14.417Z,1.98
2018-03-21T09:23:14.445Z,1.93
2018-03-21T09:24:14.637Z,1.94
2018-03-21T09:25:14.347Z,1.97
2018-03-21T09:26:14.651Z,2.01
2018-03-21T09:27:14.302Z,2.17
2018-03-21T09:28:14.276Z,2.09
2018-03-21T09:29:14.525Z,2.15
2018-03-21T09:30:14.234Z,2.17
2018-03-21T09:31:14.214Z,2.31
2018-03-21T09:32:14.681Z,2.34
2018-03-21T09:33:14.198Z,2.33
2018-03-21T09:34:13.900Z,2.37
2018-03-21T09:35:14.132Z,2.37
2018-03-21T09:36:14.397Z,2.46
2018-03-21T09:37:14.090Z,2.48
2018-03-21T09:38:13.808Z,2.35
2018-03-21T09:39:14.415Z,2.35
2018-03-21T09:40:14.023Z,2.41
2018-03-21T09:41:14.370Z,2.37
2018-03-21T09:42:13.716Z,2.38
2018-03-21T09:43:14.253Z,2.34
2018-03-21T09:44:14.027Z,2.33
2018-03-21T09:45:14.178Z,2.37
2018-03-21T09:46:14.230Z,2.34
2018-03-21T09:47:13.604Z,2.33
2018-03-21T09:48:13.908Z,2.49
2018-03-21T09:49:13.829Z,2.58
2018-03-21T09:50:13.840Z,2.59
2018-03-21T09:51:13.969Z,2.67
2018-03-21T09:52:13.805Z,2.59
2018-03-21T09:53:14.011Z,2.56
2018-03-21T09:54:13.787Z,2.61
2018-03-21T09:55:13.912Z,2.51
2018-03-21T09:56:13.956Z,2.55
2018-03-21T09:57:14.003Z,2.49
2018-03-21T09:58:13.370Z,2.48
2018-03-21T09:59:13.890Z,2.56
2018-03-21T10:00:13.601Z,2.49
2018-03-21T10:01:14.159Z,2.56
2018-03-21T10:02:13.552Z,2.53
2018-03-21T10:03:13.529Z,2.59
2018-03-21T10:04:13.775Z,2.63
2018-03-21T10:05:13.486Z,2.55
2018-03-21T10:06:13.470Z,2.61
2018-03-21T10:07:13.713Z,2.59
2018-03-21T10:08:13.425Z,2.59
2018-03-21T10:09:13.621Z,2.63
2018-03-21T10:10:13.482Z,2.63
2018-03-21T10:11:13.361Z,2.49
2018-03-21T10:12:13.337Z,2.64
2018-03-21T10:13:13.590Z,2.7
2018-03-21T10:14:13.032Z,2.67
2018-03-21T10:15:13.481Z,2.64
2018-03-21T10:16:13.538Z,2.69
2018-03-21T10:17:12.966Z,2.7
2018-03-21T10:18:13.486Z,2.59
2018-03-21T10:19:13.183Z,2.63
2018-03-21T10:20:13.002Z,2.66
2018-03-21T10:21:13.148Z,2.64
2018-03-21T10:22:13.134Z,2.69
2018-03-21T10:23:13.369Z,2.7
2018-03-21T10:24:13.098Z,2.69
2018-03-21T10:25:13.126Z,2.59
2018-03-21T10:26:12.808Z,2.61
2018-03-21T10:27:12.834Z,2.58
2018-03-21T10:28:13.017Z,2.52
2018-03-21T10:29:12.709Z,2.55
2018-03-21T10:30:12.950Z,2.69
2018-03-21T10:31:12.938Z,2.71
2018-03-21T10:32:12.870Z,2.71
2018-03-21T10:33:13.029Z,2.76
2018-03-21T10:34:13.234Z,2.79
2018-03-21T10:35:12.906Z,2.77
2018-03-21T10:36:12.668Z,2.79
2018-03-21T10:37:13.078Z,2.84
2018-03-21T10:38:13.061Z,2.87
2018-03-21T10:39:12.760Z,2.77
2018-03-21T10:40:13.011Z,2.88
2018-03-21T10:41:12.720Z,2.92
2018-03-21T10:42:12.974Z,3.13
2018-03-21T10:43:12.692Z,3.16
2018-03-21T10:44:12.690Z,3.16
2018-03-21T10:45:12.631Z,3.24
2018-03-21T10:46:12.614Z,3.4
2018-03-21T10:47:12.327Z,3.42
2018-03-21T10:48:12.353Z,3.44
2018-03-21T10:49:12.549Z,3.49
2018-03-21T10:50:12.530Z,3.54
2018-03-21T10:51:12.241Z,3.61
2018-03-21T10:52:12.496Z,3.82
2018-03-21T10:53:12.463Z,3.9
2018-03-21T10:54:12.844Z,4.03
2018-03-21T10:55:12.698Z,4.1
2018-03-21T10:56:12.138Z,4.28
2018-03-21T10:57:12.393Z,4.28
2018-03-21T10:58:12.642Z,4.29
2018-03-21T10:59:12.488Z,4.22
2018-03-21T11:00:12.598Z,4.22
2018-03-21T11:01:12.093Z,4.24
2018-03-21T11:02:12.294Z,4.25
2018-03-21T11:03:12.274Z,4.07
2018-03-21T11:04:12.514Z,4.14
2018-03-21T11:05:12.232Z,3.97
2018-03-21T11:06:12.217Z,3.97
2018-03-21T11:07:12.463Z,4.22
2018-03-21T11:08:12.248Z,4.51
2018-03-21T11:09:11.979Z,4.69
2018-03-21T11:10:11.873Z,5.2
2018-03-21T11:11:12.478Z,5.49
2018-03-21T11:12:12.112Z,5.64
2018-03-21T11:13:12.083Z,5.77
2018-03-21T11:14:12.069Z,5.59
2018-03-21T11:15:12.317Z,5.63
2018-03-21T11:16:12.039Z,5.6
2018-03-21T11:17:12.077Z,5.48
2018-03-21T11:18:11.738Z,5.14
2018-03-21T11:19:12.072Z,5.28
2018-03-21T11:20:11.792Z,5.27
2018-03-21T11:21:12.013Z,5.48
2018-03-21T11:22:11.691Z,5.48
2018-03-21T11:23:11.937Z,5.2
2018-03-21T11:24:12.205Z,4.94
2018-03-21T11:25:11.967Z,5.01
2018-03-21T11:26:11.602Z,5.13
2018-03-21T11:27:12.120Z,5.12
2018-03-21T11:28:11.835Z,5.01
2018-03-21T11:29:11.817Z,4.99
2018-03-21T11:30:11.537Z,4.91
2018-03-21T11:31:11.513Z,4.96
2018-03-21T11:32:11.772Z,5.04
2018-03-21T11:33:11.750Z,5.09
2018-03-21T11:34:11.488Z,5.1
2018-03-21T11:35:11.565Z,5.12
2018-03-21T11:36:11.769Z,5.17
2018-03-21T11:37:11.455Z,5.12
2018-03-21T11:38:11.656Z,5.16
2018-03-21T11:39:11.674Z,4.91
2018-03-21T11:40:11.353Z,4.73
2018-03-21T11:41:11.604Z,4.79
2018-03-21T11:42:11.665Z,4.73
2018-03-21T11:43:11.567Z,4.86
2018-03-21T11:44:11.286Z,4.86
2018-03-21T11:45:11.641Z,4.64
2018-03-21T11:46:11.424Z,4.64
2018-03-21T11:47:11.777Z,4.58
2018-03-21T11:48:11.217Z,4.62
2018-03-21T11:49:11.730Z,4.51
2018-03-21T11:50:11.187Z,4.39
2018-03-21T11:51:11.481Z,4.37
2018-03-21T11:52:11.678Z,4.34
2018-03-21T11:53:11.664Z,4.22
2018-03-21T11:54:11.103Z,4.26
2018-03-21T11:55:11.563Z,4.21
2018-03-21T11:56:11.097Z,4.25
2018-03-21T11:57:11.318Z,4.42
2018-03-21T11:58:11.299Z,4.52
2018-03-21T11:59:11.276Z,4.62
2018-03-21T12:00:11.257Z,4.7
2018-03-21T12:01:10.980Z,4.84
2018-03-21T12:02:11.494Z,5.04
2018-03-21T12:03:11.201Z,4.91
2018-03-21T12:04:11.511Z,4.89
2018-03-21T12:05:10.910Z,4.92
2018-03-21T12:06:11.193Z,4.92
2018-03-21T12:07:11.348Z,4.94
2018-03-21T12:08:11.375Z,5.02
2018-03-21T12:09:11.353Z,5.04
2018-03-21T12:10:11.357Z,5.12
2018-03-21T12:11:11.055Z,5.16
2018-03-21T12:12:11.305Z,5.3
2018-03-21T12:13:11.018Z,5.38
2018-03-21T12:14:11.000Z,5.34
2018-03-21T12:15:11.245Z,5.12
2018-03-21T12:16:11.232Z,5.37
2018-03-21T12:17:10.949Z,5.46
2018-03-21T12:18:11.262Z,5.46
2018-03-21T12:19:10.656Z,5.66
2018-03-21T12:20:10.624Z,5.57
2018-03-21T12:21:10.883Z,5.4
2018-03-21T12:22:10.858Z,5.4
2018-03-21T12:23:10.853Z,5.48
2018-03-21T12:24:10.601Z,5.59
2018-03-21T12:25:11.203Z,5.63
2018-03-21T12:26:10.787Z,5.57
2018-03-21T12:27:11.038Z,5.41
2018-03-21T12:28:10.492Z,5.43
2018-03-21T12:29:11.107Z,5.53
2018-03-21T12:30:10.759Z,5.77
2018-03-21T12:31:10.695Z,5.85
2018-03-21T12:32:10.735Z,5.67
2018-03-21T12:33:10.471Z,5.67
2018-03-21T12:34:10.684Z,5.73
2018-03-21T12:35:10.934Z,5.77
2018-03-21T12:36:10.607Z,5.86
2018-03-21T12:37:10.585Z,6.07
2018-03-21T12:38:10.374Z,6.48
2018-03-21T12:39:10.296Z,6.91
2018-03-21T12:40:10.552Z,7.16
2018-03-21T12:41:10.517Z,6.98
2018-03-21T12:42:10.501Z,7.02
2018-03-21T12:43:10.755Z,7.02
2018-03-21T12:44:10.473Z,6.91
2018-03-21T12:45:10.500Z,6.62
2018-03-21T12:46:10.736Z,6.53
2018-03-21T12:47:10.426Z,6.54
2018-03-21T12:48:10.402Z,6.59
2018-03-21T12:49:10.122Z,6.61
2018-03-21T12:50:10.120Z,6.63
2018-03-21T12:51:10.632Z,6.66
2018-03-21T12:52:10.350Z,6.68
2018-03-21T12:53:10.373Z,6.81
2018-03-21T12:54:10.582Z,6.81
2018-03-21T12:55:10.302Z,6.65
2018-03-21T12:56:10.602Z,6.56
2018-03-21T12:57:10.276Z,6.63
2018-03-21T12:58:10.524Z,6.79
2018-03-21T12:59:10.235Z,6.98
2018-03-21T13:00:10.491Z,6.98
2018-03-21T13:01:10.510Z,6.98
2018-03-21T13:02:09.914Z,6.86
2018-03-21T13:03:10.180Z,6.73
2018-03-21T13:04:10.156Z,6.59
2018-03-21T13:05:10.414Z,6.43
2018-03-21T13:06:10.114Z,6.47
2018-03-21T13:07:10.372Z,6.5